Time;durP1;ratioP1;P1;durP2;ratioP2;P2;SDS_P1;SDS_P2;PMS_P1;PMS_P2;Temp;Humidity;BMP_temperature;BMP_pressure;BME280_temperature;BME280_humidity;BME280_pressure;Samples;Min_cycle;Max_cycle;Signal;HPM_P1;HPM_P2
2022/03/27 00:01:08;;;;;;;25.58;17.25;;;;;;;10.27;38.01;95788.63;5160349;27;20186;-67
2022/03/27 00:03:35;;;;;;;25.25;18.20;;;;;;;10.11;38.16;95786.41;5160433;27;20214;-67
2022/03/27 00:06:02;;;;;;;26.15;18.40;;;;;;;10.10;37.63;95778.47;5160264;27;20187;-67
2022/03/27 00:08:29;;;;;;;26.05;18.20;;;;;;;10.04;38.00;95794.38;5138395;27;20222;-67
2022/03/27 00:13:40;;;;;;;21.77;17.45;;;;;;;9.87;38.11;95787.00;5139072;27;20175;-67
2022/03/27 00:16:09;;;;;;;23.13;17.33;;;;;;;9.86;38.14;95790.09;5139039;27;20290;-67
2022/03/27 00:18:36;;;;;;;24.23;17.50;;;;;;;9.82;37.72;95780.88;5138256;27;20222;-67
2022/03/27 00:21:03;;;;;;;22.60;17.33;;;;;;;9.70;38.31;95781.56;5138934;27;20195;-67
2022/03/27 00:23:30;;;;;;;22.35;16.55;;;;;;;9.64;38.57;95775.44;5121200;27;20260;-67
2022/03/27 00:25:57;;;;;;;22.63;16.65;;;;;;;9.55;38.87;95768.31;5121345;27;20273;-67
2022/03/27 00:28:25;;;;;;;20.05;16.55;;;;;;;9.51;39.11;95775.63;5121151;27;20210;-67
2022/03/27 00:30:52;;;;;;;23.08;17.85;;;;;;;9.37;40.11;95776.66;5120578;27;20198;-67
2022/03/27 00:33:20;;;;;;;24.70;19.05;;;;;;;9.18;40.32;95776.19;5138852;27;20281;-67
2022/03/27 00:35:47;;;;;;;26.73;18.85;;;;;;;9.09;41.04;95767.16;5121146;27;20237;-67
2022/03/27 00:38:14;;;;;;;27.90;19.75;;;;;;;8.93;41.16;95769.59;5138722;27;20250;-67
2022/03/27 00:40:41;;;;;;;24.35;18.73;;;;;;;8.82;40.99;95768.31;5120663;27;20229;-67
2022/03/27 00:43:08;;;;;;;24.80;17.45;;;;;;;8.72;40.97;95761.22;5120402;27;20626;-67
2022/03/27 00:45:35;;;;;;;21.65;17.85;;;;;;;8.65;40.79;95758.16;5138812;27;20214;-67
2022/03/27 00:48:02;;;;;;;19.33;16.08;;;;;;;8.56;40.75;95757.31;5120671;27;20202;-67
2022/03/27 00:50:30;;;;;;;22.85;17.10;;;;;;;8.61;41.00;95754.44;5120881;27;20199;-67
2022/03/27 00:52:58;;;;;;;25.20;17.52;;;;;;;8.67;40.79;95753.09;5120414;27;20286;-67
2022/03/27 00:55:25;;;;;;;22.77;16.30;;;;;;;8.67;42.15;95748.41;5138326;27;20185;-67
2022/03/27 00:57:52;;;;;;;20.77;17.08;;;;;;;8.61;41.93;95752.47;5120443;27;20243;-67
2022/03/27 01:00:21;;;;;;;18.70;16.08;;;;;;;8.57;41.60;95745.19;5119994;27;20289;-67
2022/03/27 01:02:50;;;;;;;22.67;17.30;;;;;;;8.52;41.61;95743.41;5120032;27;20194;-67
2022/03/27 01:05:17;;;;;;;25.05;17.85;;;;;;;8.51;41.55;95747.31;5120867;27;20200;-67
2022/03/27 01:07:45;;;;;;;29.83;20.02;;;;;;;8.51;42.18;95738.25;5128847;27;20236;-67
2022/03/27 01:10:11;;;;;;;28.50;20.13;;;;;;;8.43;42.09;95740.66;5140620;27;20190;-67
2022/03/27 01:12:40;;;;;;;33.88;22.85;;;;;;;8.38;42.06;95740.81;5158745;27;20179;-67
2022/03/27 01:15:23;;;;;;;32.50;22.45;;;;;;;8.39;41.86;95738.91;5158911;27;20270;-67
2022/03/27 01:17:50;;;;;;;26.38;20.80;;;;;;;8.33;42.20;95738.19;5158385;27;20302;-67
2022/03/27 01:20:23;;;;;;;28.52;21.55;;;;;;;8.26;42.49;95745.31;5140908;27;20228;-67
2022/03/27 01:22:50;;;;;;;30.55;21.50;;;;;;;8.22;42.55;95747.91;5158631;27;20198;-67
2022/03/27 01:25:17;;;;;;;32.33;24.00;;;;;;;8.23;42.12;95748.69;5158606;27;20206;-67
2022/03/27 01:27:44;;;;;;;35.58;26.60;;;;;;;8.29;41.63;95747.41;5158630;27;20197;-67
2022/03/27 01:30:12;;;;;;;40.30;31.38;;;;;;;8.29;41.38;95739.19;5158437;27;20259;-67
2022/03/27 01:32:39;;;;;;;44.42;35.75;;;;;;;8.28;41.13;95740.28;5158195;27;20206;-67
2022/03/27 01:35:07;;;;;;;44.35;33.45;;;;;;;8.23;41.44;95740.44;5140257;27;20251;-67
2022/03/27 01:37:35;;;;;;;39.00;31.42;;;;;;;8.15;41.58;95744.81;5140554;27;20214;-67
2022/03/27 01:40:02;;;;;;;36.45;29.25;;;;;;;8.04;41.63;95740.75;5158138;27;20590;-67
2022/03/27 01:42:29;;;;;;;34.72;26.65;;;;;;;8.03;41.41;95739.13;5158305;27;20210;-67
2022/03/27 01:44:56;;;;;;;28.95;23.23;;;;;;;7.99;41.94;95736.22;5139719;27;20198;-67
2022/03/27 01:47:23;;;;;;;29.40;22.52;;;;;;;8.01;41.61;95733.94;5139853;27;20202;-67
2022/03/27 01:49:50;;;;;;;27.20;21.92;;;;;;;7.90;42.30;95747.19;5139680;27;20241;-67
2022/03/27 01:52:17;;;;;;;24.55;19.30;;;;;;;7.87;41.94;95745.06;5139970;27;20609;-67
2022/03/27 01:54:45;;;;;;;23.85;16.80;;;;;;;7.80;40.92;95750.22;5158094;27;20210;-67
2022/03/27 01:57:13;;;;;;;18.75;16.08;;;;;;;7.77;41.67;95744.53;5139796;27;20202;-67
2022/03/27 01:59:40;;;;;;;20.80;15.32;;;;;;;7.69;40.96;95744.19;5157942;27;20251;-67
2022/03/27 02:02:07;;;;;;;21.10;14.43;;;;;;;7.68;40.91;95745.34;5157647;27;20179;-67
2022/03/27 02:04:34;;;;;;;19.27;14.52;;;;;;;7.62;40.76;95745.78;5139268;27;20186;-67
2022/03/27 02:07:01;;;;;;;20.38;14.32;;;;;;;7.59;40.82;95744.50;5139337;27;20665;-67
2022/03/27 02:09:28;;;;;;;16.23;14.15;;;;;;;7.57;40.44;95754.19;5139634;27;20198;-67
2022/03/27 02:11:56;;;;;;;15.25;13.65;;;;;;;7.52;40.64;95746.09;5157904;27;20229;-67
2022/03/27 02:14:23;;;;;;;16.40;13.50;;;;;;;7.45;41.13;95755.59;5157703;27;20221;-67
2022/03/27 02:16:50;;;;;;;17.33;13.50;;;;;;;7.46;40.78;95748.97;5157647;27;20186;-67
2022/03/27 02:19:17;;;;;;;19.33;14.18;;;;;;;7.41;41.33;95749.13;5138997;27;20226;-67
2022/03/27 02:21:44;;;;;;;21.67;14.18;;;;;;;7.35;41.37;95750.38;5157710;27;20243;-67
2022/03/27 02:24:11;;;;;;;18.58;13.25;;;;;;;7.33;41.10;95757.28;5139688;27;20219;-67
2022/03/27 02:26:44;;;;;;;17.83;13.63;;;;;;;7.36;40.53;95756.66;5138895;27;20242;-67
2022/03/27 02:29:13;;;;;;;18.05;13.27;;;;;;;7.31;40.83;95749.38;5139918;27;20206;-67
2022/03/27 02:31:40;;;;;;;17.75;13.05;;;;;;;7.26;40.70;95755.00;5157585;27;20186;-67
2022/03/27 02:34:07;;;;;;;17.25;13.10;;;;;;;7.21;41.19;95760.63;5139459;27;20198;-67
2022/03/27 02:36:34;;;;;;;20.15;14.05;;;;;;;7.21;41.53;95764.16;5139308;27;20246;-67
2022/03/27 02:39:01;;;;;;;14.75;13.13;;;;;;;7.20;41.71;95757.06;5138775;27;20305;-67
2022/03/27 02:41:28;;;;;;;17.13;13.13;;;;;;;7.13;42.34;95764.94;5157427;27;20259;-67
2022/03/27 02:43:55;;;;;;;17.85;13.70;;;;;;;7.15;42.15;95772.84;5139182;27;20225;-67
2022/03/27 02:46:23;;;;;;;19.30;13.45;;;;;;;7.14;42.50;95765.75;5138722;27;20209;-67
2022/03/27 02:48:50;;;;;;;20.85;13.82;;;;;;;7.07;42.64;95766.19;5157061;27;20251;-67
2022/03/27 02:51:17;;;;;;;18.20;13.98;;;;;;;6.99;42.62;95767.75;5138898;27;20224;-67
2022/03/27 02:53:44;;;;;;;18.77;14.27;;;;;;;6.87;43.85;95777.69;5157110;27;20239;-67
2022/03/27 02:56:11;;;;;;;19.17;14.95;;;;;;;6.74;43.78;95780.16;5156781;27;20178;-67
2022/03/27 02:58:38;;;;;;;22.90;14.63;;;;;;;6.66;43.71;95778.16;5156909;27;20198;-67
2022/03/27 03:01:05;;;;;;;22.75;15.70;;;;;;;6.66;43.99;95771.88;5139479;27;20247;-67
2022/03/27 03:03:34;;;;;;;16.83;14.55;;;;;;;6.67;43.85;95779.78;5138727;27;20198;-67
2022/03/27 03:06:04;;;;;;;27.05;15.55;;;;;;;6.55;44.52;95782.28;5157059;27;20225;-67
2022/03/27 03:08:31;;;;;;;24.55;15.15;;;;;;;6.47;45.21;95781.09;5157018;27;20261;-67
2022/03/27 03:10:58;;;;;;;20.77;14.60;;;;;;;6.46;44.86;95786.84;5138708;27;20586;-67
2022/03/27 03:13:44;;;;;;;22.80;14.40;;;;;;;6.54;44.61;95791.63;5156781;27;20185;-67
2022/03/27 03:16:11;;;;;;;19.08;14.95;;;;;;;6.54;44.05;95788.06;5138699;27;20198;-67
2022/03/27 03:18:39;;;;;;;21.60;14.55;;;;;;;6.58;44.49;95784.41;5138410;27;20217;-67
2022/03/27 03:21:06;;;;;;;19.13;14.20;;;;;;;6.54;45.26;95788.88;5156494;27;20592;-67
2022/03/27 03:23:33;;;;;;;21.42;16.50;;;;;;;6.41;45.44;95779.56;5138612;27;20222;-67
2022/03/27 03:26:01;;;;;;;22.48;15.80;;;;;;;6.27;45.59;95784.28;5156791;27;20558;-67
2022/03/27 03:28:28;;;;;;;22.88;17.77;;;;;;;6.12;45.51;95784.63;5156419;27;20179;-67
2022/03/27 03:30:55;;;;;;;21.98;16.40;;;;;;;6.06;46.02;95788.56;5157680;27;20193;-67
2022/03/27 03:33:22;;;;;;;24.58;16.13;;;;;;;6.12;45.74;95784.63;5160877;27;20201;-67
2022/03/27 03:35:50;;;;;;;22.15;16.55;;;;;;;6.17;45.79;95785.31;5142703;27;20666;-67
2022/03/27 03:38:17;;;;;;;21.25;15.75;;;;;;;6.15;45.15;95784.00;5160696;27;20289;-67
2022/03/27 03:40:44;;;;;;;19.35;15.50;;;;;;;6.19;45.50;95788.56;5142412;27;20285;-67
2022/03/27 03:43:13;;;;;;;17.13;15.05;;;;;;;6.26;45.51;95779.91;5160922;27;20530;-67
2022/03/27 03:45:40;;;;;;;20.50;16.42;;;;;;;6.29;45.60;95784.78;5142489;27;20198;-67
2022/03/27 03:48:08;;;;;;;19.15;15.48;;;;;;;6.19;46.75;95787.75;5160584;27;20191;-67
2022/03/27 03:50:35;;;;;;;19.80;15.27;;;;;;;6.11;46.50;95788.47;5141938;27;20221;-67
2022/03/27 03:53:04;;;;;;;17.90;15.35;;;;;;;6.10;46.16;95782.19;5142260;27;20206;-67
2022/03/27 03:55:31;;;;;;;19.85;14.80;;;;;;;6.11;46.23;95786.53;5142489;27;20213;-67
2022/03/27 03:57:58;;;;;;;21.63;15.93;;;;;;;6.19;45.84;95787.75;5142009;27;20257;-67
2022/03/27 04:00:26;;;;;;;19.73;16.00;;;;;;;6.29;46.67;95789.47;5160282;27;20189;-67
2022/03/27 04:02:52;;;;;;;20.20;15.25;;;;;;;6.16;46.90;95802.06;5142009;27;20250;-67
2022/03/27 04:05:19;;;;;;;18.80;15.75;;;;;;;5.99;46.25;95799.94;5142194;27;20198;-67
2022/03/27 04:07:50;;;;;;;28.08;16.00;;;;;;;5.83;46.68;95799.41;5159820;27;20218;-67
2022/03/27 04:10:19;;;;;;;23.40;15.75;;;;;;;5.66;46.95;95805.47;5160178;27;20195;-67
2022/03/27 04:12:46;;;;;;;22.20;16.10;;;;;;;5.64;46.65;95812.41;5141652;27;20198;-67
2022/03/27 04:15:13;;;;;;;20.80;16.42;;;;;;;5.69;46.46;95813.09;5142522;27;20512;-67
2022/03/27 04:17:43;;;;;;;18.90;15.50;;;;;;;5.73;46.28;95805.91;5160084;27;20228;-67
2022/03/27 04:20:12;;;;;;;20.95;14.98;;;;;;;5.76;46.78;95821.72;5141690;27;20206;-67
2022/03/27 04:22:39;;;;;;;22.63;15.65;;;;;;;5.87;46.50;95821.53;5141725;27;20190;-67
2022/03/27 04:25:07;;;;;;;26.75;19.77;;;;;;;5.89;47.01;95819.31;5141833;27;20202;-67
2022/03/27 04:27:36;;;;;;;28.00;20.65;;;;;;;5.79;47.78;95826.59;5142078;27;20244;-67
2022/03/27 04:30:04;;;;;;;20.63;16.55;;;;;;;5.80;47.08;95819.19;5141729;27;20190;-67
2022/03/27 04:32:31;;;;;;;21.77;17.40;;;;;;;5.80;47.33;95825.47;5159745;27;20190;-67
2022/03/27 04:34:58;;;;;;;23.30;17.98;;;;;;;5.86;47.75;95828.13;5159631;27;20194;-67
2022/03/27 04:37:25;;;;;;;24.08;18.92;;;;;;;5.78;48.13;95830.44;5141716;27;20198;-67
2022/03/27 04:39:52;;;;;;;23.85;17.70;;;;;;;5.68;47.64;95836.13;5141294;27;20692;-67
2022/03/27 04:42:19;;;;;;;24.67;17.90;;;;;;;5.51;48.24;95835.88;5140333;27;20209;-67
2022/03/27 04:44:47;;;;;;;24.55;17.10;;;;;;;5.44;47.95;95840.94;5140938;27;20233;-67
2022/03/27 04:47:14;;;;;;;19.23;16.73;;;;;;;5.45;48.04;95842.59;5159121;27;20603;-67
2022/03/27 04:49:41;;;;;;;23.80;16.40;;;;;;;5.42;47.69;95844.00;5141104;27;20190;-67
2022/03/27 04:52:08;;;;;;;21.30;17.38;;;;;;;5.36;47.50;95847.91;5159380;27;20197;-67
2022/03/27 04:54:35;;;;;;;21.88;18.17;;;;;;;5.42;47.93;95848.66;5158956;27;20218;-67
2022/03/27 04:57:03;;;;;;;23.25;17.70;;;;;;;5.52;47.58;95856.69;5159036;27;20193;-67
2022/03/27 04:59:30;;;;;;;22.40;17.52;;;;;;;5.57;47.59;95856.56;5140905;27;20238;-67
2022/03/27 05:01:59;;;;;;;23.25;17.20;;;;;;;5.62;47.26;95859.22;5141118;27;20213;-67
2022/03/27 05:04:26;;;;;;;25.88;17.38;;;;;;;5.70;47.53;95866.75;5140930;27;20244;-67
2022/03/27 05:06:53;;;;;;;31.83;19.48;;;;;;;5.73;47.51;95863.38;5158711;27;20190;-67
2022/03/27 05:09:20;;;;;;;27.90;20.23;;;;;;;5.79;48.34;95861.38;5140907;27;20198;-67
2022/03/27 05:11:47;;;;;;;26.13;20.20;;;;;;;5.82;47.76;95873.66;5140770;27;20225;-67
2022/03/27 05:14:14;;;;;;;27.08;20.58;;;;;;;5.88;47.42;95870.50;5158614;27;20239;-67
2022/03/27 05:16:41;;;;;;;27.40;20.80;;;;;;;5.91;47.58;95872.63;5158765;27;20210;-67
2022/03/27 05:19:12;;;;;;;28.20;22.20;;;;;;;5.97;46.93;95879.66;5140956;27;20210;-67
2022/03/27 05:21:39;;;;;;;25.45;21.33;;;;;;;6.05;46.21;95871.84;5140694;27;20229;-67
2022/03/27 05:24:08;;;;;;;23.08;19.25;;;;;;;6.15;45.64;95868.91;5140514;27;20650;-67
2022/03/27 05:26:35;;;;;;;21.83;17.67;;;;;;;6.23;45.56;95870.94;5158680;27;20191;-67
2022/03/27 05:29:04;;;;;;;18.23;15.25;;;;;;;6.33;45.15;95867.19;5158341;27;20202;-67
2022/03/27 05:31:30;;;;;;;18.38;15.52;;;;;;;6.40;44.94;95867.56;5158604;27;20182;-67
2022/03/27 05:33:57;;;;;;;18.65;15.70;;;;;;;6.52;45.18;95862.38;5158377;27;20516;-67
2022/03/27 05:36:26;;;;;;;19.65;15.95;;;;;;;6.58;44.44;95874.84;5158534;27;20178;-67
2022/03/27 05:38:53;;;;;;;17.60;15.80;;;;;;;6.66;44.72;95871.38;5158299;27;20203;-66
2022/03/27 05:41:20;;;;;;;17.60;15.32;;;;;;;6.71;45.16;95867.69;5158396;27;20222;-67
2022/03/27 05:43:47;;;;;;;23.05;17.10;;;;;;;6.80;45.02;95879.56;5158087;27;20235;-67
2022/03/27 05:46:14;;;;;;;18.33;15.82;;;;;;;6.86;44.88;95874.75;5140115;27;20225;-67
2022/03/27 05:48:41;;;;;;;20.70;18.17;;;;;;;6.89;44.20;95883.19;5140031;27;20606;-67
2022/03/27 05:51:08;;;;;;;24.90;22.17;;;;;;;6.96;44.51;95877.28;5158275;27;20232;-67
2022/03/27 05:53:36;;;;;;;35.88;30.90;;;;;;;7.09;44.16;95878.34;5139961;27;20197;-67
2022/03/27 05:56:03;;;;;;;28.17;23.63;;;;;;;7.19;44.24;95875.38;5158166;27;20197;-67
2022/03/27 05:58:30;;;;;;;22.83;19.08;;;;;;;7.28;43.67;95883.66;5157657;27;20598;-67
2022/03/27 06:00:57;;;;;;;22.60;18.38;;;;;;;7.36;43.54;95885.66;5157609;27;20607;-67
2022/03/27 06:03:24;;;;;;;25.13;19.00;;;;;;;7.41;43.61;95885.53;5157649;27;20591;-67
2022/03/27 06:05:51;;;;;;;25.13;20.15;;;;;;;7.46;43.04;95885.41;5140761;27;20241;-67
2022/03/27 06:08:18;;;;;;;20.50;18.40;;;;;;;7.51;43.41;95888.00;5157772;27;20609;-67
2022/03/27 06:10:48;;;;;;;21.90;18.35;;;;;;;7.54;43.31;95883.81;5139594;27;20182;-67
2022/03/27 06:13:16;;;;;;;19.00;16.52;;;;;;;7.61;43.28;95882.25;5139992;27;20190;-67
2022/03/27 06:15:43;;;;;;;18.50;16.60;;;;;;;7.69;43.14;95886.16;5139364;27;20539;-67
2022/03/27 06:18:12;;;;;;;18.83;15.60;;;;;;;7.71;43.35;95895.72;5139603;27;20194;-67
2022/03/27 06:20:40;;;;;;;20.10;16.20;;;;;;;7.74;43.48;95890.75;5139109;27;20210;-67
2022/03/27 06:23:07;;;;;;;20.45;16.92;;;;;;;7.80;43.69;95887.53;5139903;27;20201;-67
2022/03/27 06:25:34;;;;;;;19.85;16.83;;;;;;;7.92;43.29;95892.44;5139855;27;20197;-67
2022/03/27 06:28:03;;;;;;;18.52;16.58;;;;;;;7.93;42.92;95888.56;5157672;27;20269;-67
2022/03/27 06:30:32;;;;;;;19.05;16.98;;;;;;;8.00;43.25;95888.13;5157464;27;20243;-67
2022/03/27 06:33:00;;;;;;;20.73;16.33;;;;;;;8.10;43.02;95885.09;5157131;27;20179;-67
2022/03/27 06:35:27;;;;;;;20.13;17.33;;;;;;;8.16;43.11;95887.38;5157368;27;20210;-67
2022/03/27 06:37:55;;;;;;;19.73;17.63;;;;;;;8.24;43.15;95887.72;5157296;27;20196;-67
2022/03/27 06:40:22;;;;;;;19.77;17.33;;;;;;;8.34;42.83;95884.69;5139158;27;20206;-67
2022/03/27 06:42:50;;;;;;;19.52;17.35;;;;;;;8.40;43.38;95880.69;5138826;27;20198;-67
2022/03/27 06:45:19;;;;;;;20.63;18.40;;;;;;;8.43;42.87;95878.13;5138806;27;20610;-67
2022/03/27 06:47:47;;;;;;;21.55;18.27;;;;;;;8.45;42.66;95886.03;5138850;27;20198;-67
2022/03/27 06:50:15;;;;;;;21.52;17.85;;;;;;;8.50;42.59;95885.91;5157288;27;20178;-67
2022/03/27 06:52:42;;;;;;;20.98;18.17;;;;;;;8.57;42.94;95888.16;5157070;27;20194;-67
2022/03/27 06:55:10;;;;;;;29.30;26.20;;;;;;;8.74;43.30;95884.66;5139670;27;20206;-67
2022/03/27 06:57:37;;;;;;;32.95;29.50;;;;;;;8.89;42.69;95903.44;5139419;27;20193;-67
2022/03/27 07:03:06;;;;;;;26.77;21.40;;;;;;;9.16;42.56;95894.88;5156770;27;20556;-67
2022/03/27 07:05:35;;;;;;;24.60;20.98;;;;;;;9.26;42.04;95895.69;5156310;27;20197;-68
2022/03/27 07:08:03;;;;;;;23.15;19.88;;;;;;;9.37;41.66;95894.25;5134997;28;20609;-68
2022/03/27 07:10:30;;;;;;;22.98;19.65;;;;;;;9.44;41.68;95891.81;5135853;28;20225;-67
2022/03/27 07:12:57;;;;;;;23.50;19.83;;;;;;;9.56;42.40;95885.63;5135812;28;20611;-67
2022/03/27 07:15:25;;;;;;;31.67;21.80;;;;;;;9.68;42.12;95891.28;5135367;28;20199;-67
2022/03/27 07:17:54;;;;;;;23.38;20.17;;;;;;;9.81;42.59;95886.72;5135417;28;20207;-67
2022/03/27 07:20:25;;;;;;;23.27;17.63;;;;;;;9.94;42.14;95890.41;5135185;28;20267;-67
2022/03/27 07:22:53;;;;;;;20.08;16.65;;;;;;;10.03;40.80;95885.69;5134808;28;20195;-67
2022/03/27 07:25:21;;;;;;;23.08;17.92;;;;;;;10.12;41.11;95884.50;5135975;28;20256;-67
2022/03/27 07:27:48;;;;;;;22.20;17.38;;;;;;;10.25;40.79;95888.22;5135063;28;20209;-67
2022/03/27 07:30:15;;;;;;;17.90;13.57;;;;;;;10.42;41.09;95889.25;5134995;28;20198;-67
2022/03/27 07:32:42;;;;;;;14.10;12.50;;;;;;;10.60;40.98;95886.09;5135008;28;20606;-67
2022/03/27 07:35:11;;;;;;;16.98;13.20;;;;;;;10.75;40.88;95878.41;5135214;28;20230;-67
2022/03/27 07:37:39;;;;;;;14.23;12.05;;;;;;;10.91;39.95;95876.66;5135256;28;20217;-67
2022/03/27 07:40:09;;;;;;;16.40;12.00;;;;;;;11.07;40.33;95872.16;5136030;28;20203;-67
2022/03/27 07:42:36;;;;;;;15.60;11.77;;;;;;;11.24;39.11;95867.63;5135122;28;20214;-67
2022/03/27 07:45:04;;;;;;;12.57;9.60;;;;;;;11.47;38.76;95871.63;5134957;28;20195;-67
2022/03/27 07:47:31;;;;;;;11.25;9.98;;;;;;;11.63;38.08;95854.44;5134600;28;20191;-67
2022/03/27 07:49:59;;;;;;;13.90;10.90;;;;;;;11.79;38.03;95863.69;5135863;28;20171;-67
2022/03/27 07:52:28;;;;;;;15.48;12.73;;;;;;;11.92;36.93;95870.09;5134566;28;20290;-67
2022/03/27 07:54:55;;;;;;;13.02;9.77;;;;;;;12.04;34.35;95861.81;5134848;28;20187;-67
2022/03/27 07:57:21;;;;;;;13.35;10.32;;;;;;;12.18;34.05;95870.59;5135057;28;20199;-67
2022/03/27 07:59:49;;;;;;;11.65;10.40;;;;;;;12.30;32.08;95878.09;5117587;28;20208;-67
2022/03/27 08:02:16;;;;;;;17.27;10.52;;;;;;;12.37;32.43;95866.47;5134848;28;20187;-67
2022/03/27 08:04:43;;;;;;;12.48;9.98;;;;;;;12.47;32.46;95874.31;5134929;28;20219;-67
2022/03/27 08:07:10;;;;;;;11.60;9.57;;;;;;;12.51;32.20;95867.75;5140009;27;20256;-67
2022/03/27 08:09:38;;;;;;;12.57;9.43;;;;;;;12.57;32.01;95868.34;5156313;27;20179;-67
2022/03/27 08:12:07;;;;;;;12.35;9.30;;;;;;;12.65;32.69;95866.59;5138221;27;20506;-67
2022/03/27 08:14:34;;;;;;;11.80;9.45;;;;;;;12.76;32.46;95864.97;5138305;27;20199;-67
2022/03/27 08:17:01;;;;;;;11.20;9.85;;;;;;;12.91;31.85;95871.75;5138189;27;20195;-67
2022/03/27 08:19:28;;;;;;;12.70;10.85;;;;;;;13.04;31.17;95861.47;5141683;27;20275;-67
2022/03/27 08:21:55;;;;;;;12.05;10.48;;;;;;;13.13;30.73;95864.91;5141769;27;20279;-67
2022/03/27 08:24:22;;;;;;;13.45;11.15;;;;;;;13.20;30.84;95860.38;5159865;27;20217;-67
2022/03/27 08:26:56;;;;;;;11.90;10.63;;;;;;;13.28;30.38;95866.16;5159914;27;20175;-67
2022/03/27 08:29:24;;;;;;;13.00;11.60;;;;;;;13.36;30.54;95868.81;5141643;27;20229;-67
2022/03/27 08:31:51;;;;;;;12.82;10.05;;;;;;;13.43;30.82;95862.66;5159874;27;20277;-67
2022/03/27 08:34:18;;;;;;;11.75;10.55;;;;;;;13.59;31.30;95857.16;5159381;27;20255;-67
2022/03/27 08:36:46;;;;;;;14.38;11.32;;;;;;;13.72;30.80;95851.22;5141441;27;20198;-67
2022/03/27 08:39:31;;;;;;;12.68;11.20;;;;;;;13.81;30.75;95842.72;5141412;27;20300;-67
2022/03/27 08:41:59;;;;;;;13.25;10.45;;;;;;;13.94;30.28;95846.22;5141720;27;20209;-67
2022/03/27 08:44:28;;;;;;;13.50;11.43;;;;;;;14.06;29.99;95845.38;5159317;27;20202;-67
2022/03/27 08:46:56;;;;;;;13.73;11.07;;;;;;;14.11;29.59;95843.13;5141324;27;20190;-67
2022/03/27 08:49:34;;;;;;;14.13;11.13;;;;;;;14.14;29.09;95827.75;5141285;27;20534;-67
2022/03/27 08:52:12;;;;;;;15.90;11.13;;;;;;;14.26;29.73;95833.19;5140993;27;20197;-67
2022/03/27 08:54:43;;;;;;;13.63;11.52;;;;;;;14.43;29.68;95837.59;5141181;27;20225;-67
2022/03/27 08:57:23;;;;;;;15.75;12.43;;;;;;;14.53;28.91;95837.06;5141472;27;20210;-67
2022/03/27 08:59:53;;;;;;;15.07;11.85;;;;;;;14.62;29.21;95834.09;5141057;27;20244;-67
2022/03/27 09:02:23;;;;;;;14.27;11.80;;;;;;;14.75;28.90;95838.38;5159264;27;20182;-67
2022/03/27 09:04:52;;;;;;;15.73;12.63;;;;;;;14.80;28.47;95828.97;5140768;27;20250;-67
2022/03/27 09:07:19;;;;;;;12.93;10.57;;;;;;;14.83;29.20;95831.81;5158724;27;20286;-67
2022/03/27 09:09:46;;;;;;;15.50;11.15;;;;;;;15.00;28.76;95830.63;5141318;27;20191;-67
2022/03/27 09:12:15;;;;;;;15.85;13.18;;;;;;;15.10;27.62;95840.34;5159017;27;20187;-67
2022/03/27 09:14:43;;;;;;;17.27;12.93;;;;;;;15.22;27.82;95834.69;5140754;27;20537;-67
2022/03/27 09:17:10;;;;;;;15.82;11.63;;;;;;;15.29;27.53;95834.81;5141164;27;20237;-67
2022/03/27 09:19:39;;;;;;;17.95;10.63;;;;;;;15.49;28.11;95834.81;5159006;27;20210;-67
2022/03/27 09:22:14;;;;;;;15.95;12.05;;;;;;;15.57;26.54;95839.34;5141129;27;20223;-68
2022/03/27 09:24:42;;;;;;;14.95;12.40;;;;;;;15.62;26.55;95837.09;5158389;27;20192;-68
2022/03/27 09:27:10;;;;;;;15.43;11.48;;;;;;;15.66;26.67;95834.41;5158376;27;20269;-68
2022/03/27 09:29:59;;;;;;;15.13;11.77;;;;;;;15.74;26.29;95827.81;5158163;27;20182;-68
2022/03/27 09:32:28;;;;;;;14.95;13.23;;;;;;;15.82;25.59;95821.22;5139986;27;20194;-68
2022/03/27 09:34:59;;;;;;;17.13;12.45;;;;;;;15.93;26.11;95826.97;5140251;27;20418;-68
2022/03/27 09:37:29;;;;;;;16.73;12.32;;;;;;;15.93;26.31;95824.19;5158478;27;20240;-68
2022/03/27 09:39:56;;;;;;;16.13;11.70;;;;;;;16.01;25.76;95825.13;5140632;27;20283;-68
2022/03/27 09:42:23;;;;;;;15.55;11.10;;;;;;;16.09;24.94;95804.63;5158066;27;20577;-68
2022/03/27 09:44:50;;;;;;;14.70;11.60;;;;;;;16.14;24.95;95809.88;5140217;27;20230;-68
2022/03/27 09:47:25;;;;;;;15.13;11.27;;;;;;;16.26;25.42;95823.59;5139794;27;20243;-68
2022/03/27 09:49:52;;;;;;;13.77;10.30;;;;;;;16.39;26.46;95809.50;5140618;27;20583;-68
2022/03/27 09:52:20;;;;;;;14.45;8.02;;;;;;;16.53;26.10;95807.75;5157955;27;20217;-68
2022/03/27 09:54:50;;;;;;;20.65;11.45;;;;;;;16.65;25.00;95806.72;5158219;27;20182;-67
2022/03/27 09:57:19;;;;;;;14.68;11.50;;;;;;;16.69;24.85;95806.78;5158545;27;20186;-67
2022/03/27 09:59:46;;;;;;;13.10;9.77;;;;;;;16.84;25.51;95795.50;5157617;27;20628;-67
2022/03/27 10:02:19;;;;;;;12.52;9.95;;;;;;;17.00;24.42;95784.19;5139871;27;20232;-67
2022/03/27 10:04:58;;;;;;;11.80;9.23;;;;;;;17.07;24.03;95787.09;5157565;27;20601;-67
2022/03/27 10:07:26;;;;;;;11.40;8.70;;;;;;;17.11;23.09;95787.13;5139168;27;20234;-67
2022/03/27 10:09:53;;;;;;;14.32;9.75;;;;;;;17.20;23.91;95782.06;5140504;27;20202;-67
2022/03/27 10:12:28;;;;;;;10.93;9.75;;;;;;;17.43;24.17;95790.34;5157454;27;20225;-67
2022/03/27 10:14:59;;;;;;;13.88;10.38;;;;;;;17.52;22.47;95784.44;5139667;27;20197;-67
2022/03/27 10:17:29;;;;;;;10.40;9.10;;;;;;;17.55;22.46;95775.31;5157362;27;20211;-67
2022/03/27 10:19:59;;;;;;;11.30;9.00;;;;;;;17.66;23.60;95772.66;5139363;27;20194;-67
2022/03/27 10:22:29;;;;;;;10.93;8.27;;;;;;;17.77;23.61;95760.44;5157721;27;20205;-67
2022/03/27 10:24:57;;;;;;;12.27;9.60;;;;;;;17.95;22.93;95760.63;5139224;27;20650;-67
2022/03/27 10:27:24;;;;;;;10.90;8.18;;;;;;;18.06;23.17;95751.56;5139505;27;20205;-67
2022/03/27 10:29:51;;;;;;;10.90;8.80;;;;;;;18.18;22.25;95763.22;5139614;27;20190;-67
2022/03/27 10:32:19;;;;;;;10.73;8.07;;;;;;;18.33;22.71;95755.78;5139414;27;20237;-67
2022/03/27 10:34:54;;;;;;;12.50;8.88;;;;;;;18.41;21.41;95748.25;5139154;27;20197;-67
2022/03/27 10:37:27;;;;;;;9.25;8.25;;;;;;;18.53;21.93;95756.34;5157345;27;20242;-67
2022/03/27 10:39:57;;;;;;;10.50;8.30;;;;;;;18.64;21.79;95754.41;5156683;27;20182;-67
2022/03/27 10:42:32;;;;;;;11.45;8.20;;;;;;;18.75;21.20;95754.53;5139086;27;20202;-67
2022/03/27 10:45:03;;;;;;;11.70;9.70;;;;;;;18.87;21.73;95745.00;5156866;27;20196;-67
2022/03/27 10:47:30;;;;;;;11.02;9.75;;;;;;;18.88;21.94;95738.22;5139361;27;20190;-67
2022/03/27 10:50:24;;;;;;;13.75;9.23;;;;;;;18.99;22.66;95736.28;5139139;27;20194;-67
2022/03/27 10:53:10;;;;;;;11.82;9.65;;;;;;;19.22;22.85;95741.59;5138925;27;20261;-67
2022/03/27 10:55:42;;;;;;;13.82;8.95;;;;;;;19.32;21.98;95738.06;5157073;27;20225;-67
2022/03/27 10:58:32;;;;;;;12.23;8.85;;;;;;;19.38;22.06;95742.06;5157026;27;20254;-67
2022/03/27 11:01:00;;;;;;;15.95;10.25;;;;;;;19.30;20.44;95725.66;5138770;27;20206;-67
2022/03/27 11:04:05;;;;;;;14.75;9.75;;;;;;;19.48;21.19;95726.50;5156820;27;20265;-67
2022/03/27 11:06:35;;;;;;;13.52;9.07;;;;;;;19.57;20.36;95724.16;5076569;28;20633;-67
2022/03/27 11:09:03;;;;;;;12.65;10.65;;;;;;;19.67;22.40;95725.41;5128100;27;20241;-67
2022/03/27 11:11:57;;;;;;;16.42;9.80;;;;;;;19.67;21.35;95715.00;5156602;27;20598;-67
2022/03/27 11:14:56;;;;;;;12.02;8.38;;;;;;;19.79;20.64;95705.44;5157018;27;20182;-67
2022/03/27 11:17:49;;;;;;;11.45;10.20;;;;;;;19.86;20.32;95713.03;5135059;27;20205;-67
2022/03/27 11:20:56;;;;;;;14.07;9.88;;;;;;;19.92;20.83;95703.06;5156806;27;20191;-67
2022/03/27 11:23:29;;;;;;;15.48;9.95;;;;;;;20.06;20.16;95711.47;5157021;27;20220;-67
2022/03/27 11:25:57;;;;;;;14.02;10.65;;;;;;;20.13;21.11;95697.47;5139009;27;20186;-67
2022/03/27 11:28:25;;;;;;;15.60;12.20;;;;;;;20.29;20.65;95711.06;5138702;27;20198;-67
2022/03/27 11:31:18;;;;;;;16.33;12.68;;;;;;;20.35;20.33;95700.25;5138750;27;20197;-67
2022/03/27 11:34:26;;;;;;;21.90;13.38;;;;;;;20.19;20.54;95700.69;5156534;27;20182;-67
2022/03/27 11:37:12;;;;;;;19.70;14.13;;;;;;;20.37;20.38;95698.69;5156605;27;20218;-67
2022/03/27 11:39:40;;;;;;;18.17;14.00;;;;;;;20.44;20.35;95690.25;5138472;27;20228;-67